sensor_id;sensor_type;location;lat;lon;timestamp;P1;durP1;ratioP1;P2;durP2;ratioP2
19593;SDS011;9944;48.240;16.478;2022-12-16T00:03:00;29.80;;;13.10;;
19593;SDS011;9944;48.240;16.478;2022-12-16T00:07:04;23.13;;;11.03;;
19593;SDS011;9944;48.240;16.478;2022-12-16T00:11:07;31.23;;;12.53;;
19593;SDS011;9944;48.240;16.478;2022-12-16T00:15:12;23.87;;;11.43;;
19593;SDS011;9944;48.240;16.478;2022-12-16T00:19:15;21.80;;;11.23;;
19593;SDS011;9944;48.240;16.478;2022-12-16T00:23:19;24.33;;;11.33;;
19593;SDS011;9944;48.240;16.478;2022-12-16T00:27:22;20.63;;;10.83;;
19593;SDS011;9944;48.240;16.478;2022-12-16T00:31:27;23.17;;;10.93;;
19593;SDS011;9944;48.240;16.478;2022-12-16T00:35:30;22.33;;;10.67;;
19593;SDS011;9944;48.240;16.478;2022-12-16T00:39:33;20.30;;;10.70;;
19593;SDS011;9944;48.240;16.478;2022-12-16T00:43:36;17.47;;;9.03;;
19593;SDS011;9944;48.240;16.478;2022-12-16T00:47:41;15.70;;;8.60;;
19593;SDS011;9944;48.240;16.478;2022-12-16T00:51:44;19.87;;;9.97;;
19593;SDS011;9944;48.240;16.478;2022-12-16T00:55:47;19.20;;;9.40;;
19593;SDS011;9944;48.240;16.478;2022-12-16T00:59:51;17.47;;;9.40;;
19593;SDS011;9944;48.240;16.478;2022-12-16T01:03:57;15.70;;;7.97;;
19593;SDS011;9944;48.240;16.478;2022-12-16T01:08:00;13.83;;;7.83;;
19593;SDS011;9944;48.240;16.478;2022-12-16T01:12:03;14.33;;;8.00;;
19593;SDS011;9944;48.240;16.478;2022-12-16T01:16:07;16.73;;;8.23;;
19593;SDS011;9944;48.240;16.478;2022-12-16T01:20:12;14.43;;;7.80;;
19593;SDS011;9944;48.240;16.478;2022-12-16T01:24:15;12.20;;;6.63;;
19593;SDS011;9944;48.240;16.478;2022-12-16T01:28:18;13.50;;;7.40;;
19593;SDS011;9944;48.240;16.478;2022-12-16T01:32:21;13.13;;;7.47;;
19593;SDS011;9944;48.240;16.478;2022-12-16T01:36:26;13.17;;;6.43;;
19593;SDS011;9944;48.240;16.478;2022-12-16T01:40:29;11.57;;;6.83;;
19593;SDS011;9944;48.240;16.478;2022-12-16T01:44:32;13.17;;;5.97;;
19593;SDS011;9944;48.240;16.478;2022-12-16T01:48:38;9.37;;;5.40;;
19593;SDS011;9944;48.240;16.478;2022-12-16T01:52:48;9.07;;;5.13;;
19593;SDS011;9944;48.240;16.478;2022-12-16T01:56:59;7.80;;;4.80;;
19593;SDS011;9944;48.240;16.478;2022-12-16T02:01:06;6.80;;;4.77;;
19593;SDS011;9944;48.240;16.478;2022-12-16T02:05:09;7.27;;;4.80;;
19593;SDS011;9944;48.240;16.478;2022-12-16T02:09:23;6.33;;;4.43;;
19593;SDS011;9944;48.240;16.478;2022-12-16T02:13:30;8.13;;;5.27;;
19593;SDS011;9944;48.240;16.478;2022-12-16T02:17:43;6.30;;;4.47;;
19593;SDS011;9944;48.240;16.478;2022-12-16T02:21:55;8.97;;;5.27;;
19593;SDS011;9944;48.240;16.478;2022-12-16T02:26:31;7.90;;;4.80;;
19593;SDS011;9944;48.240;16.478;2022-12-16T02:30:55;8.13;;;4.60;;
19593;SDS011;9944;48.240;16.478;2022-12-16T02:35:19;5.17;;;3.40;;
19593;SDS011;9944;48.240;16.478;2022-12-16T02:39:31;6.20;;;4.10;;
19593;SDS011;9944;48.240;16.478;2022-12-16T02:43:47;6.17;;;4.00;;
19593;SDS011;9944;48.240;16.478;2022-12-16T02:47:57;5.13;;;3.90;;
19593;SDS011;9944;48.240;16.478;2022-12-16T02:52:00;4.63;;;3.83;;
19593;SDS011;9944;48.240;16.478;2022-12-16T02:56:05;6.60;;;3.63;;
19593;SDS011;9944;48.240;16.478;2022-12-16T03:00:20;6.17;;;4.00;;
19593;SDS011;9944;48.240;16.478;2022-12-16T03:04:29;5.60;;;3.47;;
19593;SDS011;9944;48.240;16.478;2022-12-16T03:08:40;6.50;;;3.70;;
19593;SDS011;9944;48.240;16.478;2022-12-16T03:12:48;4.50;;;3.10;;
19593;SDS011;9944;48.240;16.478;2022-12-16T03:16:51;5.60;;;3.70;;
19593;SDS011;9944;48.240;16.478;2022-12-16T03:20:57;6.17;;;3.70;;
19593;SDS011;9944;48.240;16.478;2022-12-16T03:25:06;4.87;;;3.70;;
19593;SDS011;9944;48.240;16.478;2022-12-16T03:29:10;4.67;;;3.30;;
19593;SDS011;9944;48.240;16.478;2022-12-16T03:33:18;4.43;;;3.63;;
19593;SDS011;9944;48.240;16.478;2022-12-16T03:37:28;4.73;;;3.57;;
19593;SDS011;9944;48.240;16.478;2022-12-16T03:41:35;4.80;;;3.53;;
19593;SDS011;9944;48.240;16.478;2022-12-16T03:45:40;5.90;;;3.90;;
19593;SDS011;9944;48.240;16.478;2022-12-16T03:49:46;7.20;;;4.27;;
19593;SDS011;9944;48.240;16.478;2022-12-16T03:53:50;6.37;;;4.10;;
19593;SDS011;9944;48.240;16.478;2022-12-16T03:57:54;5.17;;;3.80;;
19593;SDS011;9944;48.240;16.478;2022-12-16T04:01:57;5.67;;;3.93;;
19593;SDS011;9944;48.240;16.478;2022-12-16T04:06:01;6.67;;;4.27;;
19593;SDS011;9944;48.240;16.478;2022-12-16T04:10:06;4.97;;;3.77;;
19593;SDS011;9944;48.240;16.478;2022-12-16T04:14:10;6.33;;;4.60;;
19593;SDS011;9944;48.240;16.478;2022-12-16T04:18:31;7.90;;;4.90;;
19593;SDS011;9944;48.240;16.478;2022-12-16T04:22:52;6.70;;;4.53;;
19593;SDS011;9944;48.240;16.478;2022-12-16T04:27:10;7.53;;;5.00;;
19593;SDS011;9944;48.240;16.478;2022-12-16T04:33:33;5.93;;;4.53;;
19593;SDS011;9944;48.240;16.478;2022-12-16T04:37:54;5.77;;;4.30;;
19593;SDS011;9944;48.240;16.478;2022-12-16T04:42:14;5.07;;;4.17;;
19593;SDS011;9944;48.240;16.478;2022-12-16T04:46:34;5.90;;;4.30;;
19593;SDS011;9944;48.240;16.478;2022-12-16T04:50:56;4.83;;;3.87;;
19593;SDS011;9944;48.240;16.478;2022-12-16T04:55:17;6.27;;;4.00;;
19593;SDS011;9944;48.240;16.478;2022-12-16T04:59:38;4.83;;;3.90;;
19593;SDS011;9944;48.240;16.478;2022-12-16T05:03:58;4.80;;;4.30;;
19593;SDS011;9944;48.240;16.478;2022-12-16T05:08:20;4.50;;;3.47;;
19593;SDS011;9944;48.240;16.478;2022-12-16T05:12:41;4.37;;;3.50;;
19593;SDS011;9944;48.240;16.478;2022-12-16T05:17:01;4.20;;;3.50;;
19593;SDS011;9944;48.240;16.478;2022-12-16T05:21:21;5.03;;;3.63;;
19593;SDS011;9944;48.240;16.478;2022-12-16T05:25:43;3.97;;;3.40;;
19593;SDS011;9944;48.240;16.478;2022-12-16T05:30:04;3.80;;;3.40;;
19593;SDS011;9944;48.240;16.478;2022-12-16T05:34:33;5.60;;;4.00;;
19593;SDS011;9944;48.240;16.478;2022-12-16T05:38:54;4.27;;;3.60;;
19593;SDS011;9944;48.240;16.478;2022-12-16T05:43:16;4.37;;;3.30;;
19593;SDS011;9944;48.240;16.478;2022-12-16T05:47:38;4.43;;;3.53;;
19593;SDS011;9944;48.240;16.478;2022-12-16T05:51:58;4.87;;;3.80;;
19593;SDS011;9944;48.240;16.478;2022-12-16T05:56:19;4.93;;;4.20;;
19593;SDS011;9944;48.240;16.478;2022-12-16T06:00:41;5.00;;;3.57;;
19593;SDS011;9944;48.240;16.478;2022-12-16T06:05:02;4.77;;;3.43;;
19593;SDS011;9944;48.240;16.478;2022-12-16T06:09:31;4.77;;;4.00;;
19593;SDS011;9944;48.240;16.478;2022-12-16T06:13:57;4.87;;;3.90;;
19593;SDS011;9944;48.240;16.478;2022-12-16T06:18:18;5.00;;;3.80;;
19593;SDS011;9944;48.240;16.478;2022-12-16T06:22:38;5.17;;;3.97;;
19593;SDS011;9944;48.240;16.478;2022-12-16T06:26:59;4.70;;;3.60;;
19593;SDS011;9944;48.240;16.478;2022-12-16T06:31:19;5.57;;;4.30;;
19593;SDS011;9944;48.240;16.478;2022-12-16T06:35:41;5.05;;;3.92;;
19593;SDS011;9944;48.240;16.478;2022-12-16T06:40:01;5.90;;;4.03;;
19593;SDS011;9944;48.240;16.478;2022-12-16T06:44:22;6.82;;;4.53;;
19593;SDS011;9944;48.240;16.478;2022-12-16T06:48:43;6.78;;;4.63;;
19593;SDS011;9944;48.240;16.478;2022-12-16T06:53:05;7.88;;;4.63;;
19593;SDS011;9944;48.240;16.478;2022-12-16T06:57:26;6.73;;;5.20;;
19593;SDS011;9944;48.240;16.478;2022-12-16T07:01:46;8.48;;;5.55;;
19593;SDS011;9944;48.240;16.478;2022-12-16T07:06:07;7.53;;;5.70;;
19593;SDS011;9944;48.240;16.478;2022-12-16T07:10:29;8.25;;;5.88;;
19593;SDS011;9944;48.240;16.478;2022-12-16T07:14:49;7.60;;;5.60;;
19593;SDS011;9944;48.240;16.478;2022-12-16T07:19:09;8.27;;;5.68;;
19593;SDS011;9944;48.240;16.478;2022-12-16T07:23:31;8.68;;;5.35;;
19593;SDS011;9944;48.240;16.478;2022-12-16T07:27:52;10.30;;;5.90;;
19593;SDS011;9944;48.240;16.478;2022-12-16T07:32:16;11.43;;;6.55;;
19593;SDS011;9944;48.240;16.478;2022-12-16T07:36:51;10.70;;;6.03;;
19593;SDS011;9944;48.240;16.478;2022-12-16T07:41:12;8.33;;;5.80;;
19593;SDS011;9944;48.240;16.478;2022-12-16T07:45:34;8.47;;;5.67;;
19593;SDS011;9944;48.240;16.478;2022-12-16T07:49:55;8.98;;;5.43;;
19593;SDS011;9944;48.240;16.478;2022-12-16T07:54:16;8.88;;;5.28;;
19593;SDS011;9944;48.240;16.478;2022-12-16T07:58:36;6.57;;;4.93;;
19593;SDS011;9944;48.240;16.478;2022-12-16T08:02:57;9.57;;;5.53;;
19593;SDS011;9944;48.240;16.478;2022-12-16T08:07:18;9.90;;;5.78;;
19593;SDS011;9944;48.240;16.478;2022-12-16T08:11:39;8.87;;;5.40;;
19593;SDS011;9944;48.240;16.478;2022-12-16T08:15:59;7.35;;;4.85;;
19593;SDS011;9944;48.240;16.478;2022-12-16T08:20:21;12.47;;;6.03;;
19593;SDS011;9944;48.240;16.478;2022-12-16T08:24:42;9.27;;;5.30;;
19593;SDS011;9944;48.240;16.478;2022-12-16T08:29:02;8.55;;;4.88;;
19593;SDS011;9944;48.240;16.478;2022-12-16T08:33:43;11.82;;;6.10;;
19593;SDS011;9944;48.240;16.478;2022-12-16T08:38:05;8.27;;;4.80;;
19593;SDS011;9944;48.240;16.478;2022-12-16T08:42:26;8.57;;;5.17;;
19593;SDS011;9944;48.240;16.478;2022-12-16T08:46:48;8.43;;;5.27;;
19593;SDS011;9944;48.240;16.478;2022-12-16T08:51:09;12.23;;;6.00;;
19593;SDS011;9944;48.240;16.478;2022-12-16T08:55:30;12.05;;;6.60;;
19593;SDS011;9944;48.240;16.478;2022-12-16T08:59:56;12.40;;;7.63;;
19593;SDS011;9944;48.240;16.478;2022-12-16T09:04:16;15.33;;;8.00;;
19593;SDS011;9944;48.240;16.478;2022-12-16T09:08:36;12.87;;;7.30;;
19593;SDS011;9944;48.240;16.478;2022-12-16T09:13:04;14.45;;;7.70;;
19593;SDS011;9944;48.240;16.478;2022-12-16T09:17:26;13.10;;;7.33;;
19593;SDS011;9944;48.240;16.478;2022-12-16T09:21:43;14.23;;;7.37;;
19593;SDS011;9944;48.240;16.478;2022-12-16T09:26:03;11.53;;;7.17;;
19593;SDS011;9944;48.240;16.478;2022-12-16T09:30:26;12.23;;;7.43;;
19593;SDS011;9944;48.240;16.478;2022-12-16T09:34:46;14.80;;;7.70;;
19593;SDS011;9944;48.240;16.478;2022-12-16T09:39:13;15.43;;;7.67;;
19593;SDS011;9944;48.240;16.478;2022-12-16T09:43:41;14.73;;;8.17;;
19593;SDS011;9944;48.240;16.478;2022-12-16T09:48:17;16.03;;;7.87;;
19593;SDS011;9944;48.240;16.478;2022-12-16T09:52:43;11.93;;;7.50;;
19593;SDS011;9944;48.240;16.478;2022-12-16T09:57:09;15.20;;;8.10;;
19593;SDS011;9944;48.240;16.478;2022-12-16T10:01:32;18.07;;;9.43;;
19593;SDS011;9944;48.240;16.478;2022-12-16T10:05:58;22.03;;;10.13;;
19593;SDS011;9944;48.240;16.478;2022-12-16T10:10:27;21.20;;;10.70;;
19593;SDS011;9944;48.240;16.478;2022-12-16T10:14:58;23.50;;;11.43;;
19593;SDS011;9944;48.240;16.478;2022-12-16T10:19:25;20.73;;;11.47;;
19593;SDS011;9944;48.240;16.478;2022-12-16T10:23:59;25.03;;;11.77;;
19593;SDS011;9944;48.240;16.478;2022-12-16T10:28:34;20.70;;;10.30;;
19593;SDS011;9944;48.240;16.478;2022-12-16T10:33:03;21.43;;;11.63;;
19593;SDS011;9944;48.240;16.478;2022-12-16T10:37:32;20.47;;;10.33;;
19593;SDS011;9944;48.240;16.478;2022-12-16T10:41:55;19.27;;;10.80;;
19593;SDS011;9944;48.240;16.478;2022-12-16T10:46:22;20.23;;;10.43;;
19593;SDS011;9944;48.240;16.478;2022-12-16T10:50:47;21.47;;;10.30;;
19593;SDS011;9944;48.240;16.478;2022-12-16T10:55:11;18.67;;;9.60;;
19593;SDS011;9944;48.240;16.478;2022-12-16T10:59:43;16.40;;;8.13;;
19593;SDS011;9944;48.240;16.478;2022-12-16T11:04:05;17.57;;;9.30;;
19593;SDS011;9944;48.240;16.478;2022-12-16T11:08:56;13.60;;;7.80;;
19593;SDS011;9944;48.240;16.478;2022-12-16T11:13:35;14.37;;;7.73;;
19593;SDS011;9944;48.240;16.478;2022-12-16T11:18:02;14.37;;;7.50;;
19593;SDS011;9944;48.240;16.478;2022-12-16T11:22:24;12.17;;;6.87;;
19593;SDS011;9944;48.240;16.478;2022-12-16T11:26:50;14.17;;;7.60;;
19593;SDS011;9944;48.240;16.478;2022-12-16T11:31:12;10.93;;;6.57;;
19593;SDS011;9944;48.240;16.478;2022-12-16T11:35:38;11.90;;;6.47;;
19593;SDS011;9944;48.240;16.478;2022-12-16T11:40:01;9.33;;;6.07;;
19593;SDS011;9944;48.240;16.478;2022-12-16T11:44:25;10.93;;;6.90;;
19593;SDS011;9944;48.240;16.478;2022-12-16T11:48:49;15.47;;;7.50;;
19593;SDS011;9944;48.240;16.478;2022-12-16T11:53:24;10.50;;;6.43;;
19593;SDS011;9944;48.240;16.478;2022-12-16T11:57:53;13.30;;;7.20;;
19593;SDS011;9944;48.240;16.478;2022-12-16T12:02:22;13.43;;;7.47;;
19593;SDS011;9944;48.240;16.478;2022-12-16T12:06:54;12.40;;;7.13;;
19593;SDS011;9944;48.240;16.478;2022-12-16T12:11:29;14.73;;;7.57;;
19593;SDS011;9944;48.240;16.478;2022-12-16T12:15:53;13.47;;;7.40;;
19593;SDS011;9944;48.240;16.478;2022-12-16T12:20:26;15.07;;;7.93;;
19593;SDS011;9944;48.240;16.478;2022-12-16T12:24:58;13.63;;;8.20;;
19593;SDS011;9944;48.240;16.478;2022-12-16T12:29:40;10.67;;;7.00;;
19593;SDS011;9944;48.240;16.478;2022-12-16T12:34:19;13.35;;;7.35;;
19593;SDS011;9944;48.240;16.478;2022-12-16T12:38:50;12.53;;;7.50;;
19593;SDS011;9944;48.240;16.478;2022-12-16T12:43:21;12.52;;;7.35;;
19593;SDS011;9944;48.240;16.478;2022-12-16T12:47:53;11.57;;;7.00;;
19593;SDS011;9944;48.240;16.478;2022-12-16T12:52:23;11.13;;;7.03;;
19593;SDS011;9944;48.240;16.478;2022-12-16T12:56:55;10.73;;;6.60;;
19593;SDS011;9944;48.240;16.478;2022-12-16T13:01:21;11.73;;;7.53;;
19593;SDS011;9944;48.240;16.478;2022-12-16T13:05:47;12.17;;;6.47;;
19593;SDS011;9944;48.240;16.478;2022-12-16T13:10:10;11.87;;;7.10;;
19593;SDS011;9944;48.240;16.478;2022-12-16T13:14:53;13.60;;;7.00;;
19593;SDS011;9944;48.240;16.478;2022-12-16T13:19:42;15.80;;;7.60;;
19593;SDS011;9944;48.240;16.478;2022-12-16T13:24:20;14.00;;;7.50;;
19593;SDS011;9944;48.240;16.478;2022-12-16T13:29:05;11.60;;;7.18;;
19593;SDS011;9944;48.240;16.478;2022-12-16T13:33:37;12.73;;;7.50;;
19593;SDS011;9944;48.240;16.478;2022-12-16T13:37:58;13.90;;;8.10;;
19593;SDS011;9944;48.240;16.478;2022-12-16T13:42:47;16.48;;;7.72;;
19593;SDS011;9944;48.240;16.478;2022-12-16T13:47:28;14.68;;;8.38;;
19593;SDS011;9944;48.240;16.478;2022-12-16T13:56:22;14.33;;;8.17;;
19593;SDS011;9944;48.240;16.478;2022-12-16T14:00:54;13.77;;;7.97;;
19593;SDS011;9944;48.240;16.478;2022-12-16T14:05:23;15.45;;;8.85;;
19593;SDS011;9944;48.240;16.478;2022-12-16T14:09:47;16.75;;;9.52;;
19593;SDS011;9944;48.240;16.478;2022-12-16T14:14:08;19.02;;;8.98;;
19593;SDS011;9944;48.240;16.478;2022-12-16T14:18:37;16.23;;;9.10;;
19593;SDS011;9944;48.240;16.478;2022-12-16T14:23:11;16.50;;;8.80;;
19593;SDS011;9944;48.240;16.478;2022-12-16T14:28:00;17.67;;;9.17;;
19593;SDS011;9944;48.240;16.478;2022-12-16T14:32:27;17.03;;;9.90;;
19593;SDS011;9944;48.240;16.478;2022-12-16T14:36:50;17.00;;;9.60;;
19593;SDS011;9944;48.240;16.478;2022-12-16T14:41:11;19.73;;;10.17;;
19593;SDS011;9944;48.240;16.478;2022-12-16T14:45:33;25.05;;;11.68;;
19593;SDS011;9944;48.240;16.478;2022-12-16T14:54:19;21.20;;;11.38;;
19593;SDS011;9944;48.240;16.478;2022-12-16T14:58:38;25.27;;;11.27;;
19593;SDS011;9944;48.240;16.478;2022-12-16T15:03:10;24.67;;;11.67;;
19593;SDS011;9944;48.240;16.478;2022-12-16T15:07:41;23.37;;;11.67;;
19593;SDS011;9944;48.240;16.478;2022-12-16T15:12:03;26.73;;;11.23;;
19593;SDS011;9944;48.240;16.478;2022-12-16T15:16:27;24.20;;;11.20;;
19593;SDS011;9944;48.240;16.478;2022-12-16T15:20:53;28.20;;;12.43;;
19593;SDS011;9944;48.240;16.478;2022-12-16T15:25:18;23.93;;;12.03;;
19593;SDS011;9944;48.240;16.478;2022-12-16T15:29:41;25.63;;;13.17;;
19593;SDS011;9944;48.240;16.478;2022-12-16T15:34:24;25.20;;;12.73;;
19593;SDS011;9944;48.240;16.478;2022-12-16T15:38:47;30.10;;;12.90;;
19593;SDS011;9944;48.240;16.478;2022-12-16T15:43:19;26.37;;;12.93;;
19593;SDS011;9944;48.240;16.478;2022-12-16T15:47:43;26.50;;;13.10;;
19593;SDS011;9944;48.240;16.478;2022-12-16T15:52:22;27.33;;;13.53;;
19593;SDS011;9944;48.240;16.478;2022-12-16T15:56:51;29.87;;;12.10;;
19593;SDS011;9944;48.240;16.478;2022-12-16T16:01:13;26.57;;;13.07;;
19593;SDS011;9944;48.240;16.478;2022-12-16T16:05:37;27.07;;;12.77;;
19593;SDS011;9944;48.240;16.478;2022-12-16T16:10:01;29.17;;;13.40;;
19593;SDS011;9944;48.240;16.478;2022-12-16T16:14:26;26.20;;;12.77;;
19593;SDS011;9944;48.240;16.478;2022-12-16T16:18:47;28.30;;;12.60;;
19593;SDS011;9944;48.240;16.478;2022-12-16T16:23:09;26.27;;;13.40;;
19593;SDS011;9944;48.240;16.478;2022-12-16T16:27:31;26.53;;;13.17;;
19593;SDS011;9944;48.240;16.478;2022-12-16T16:32:03;25.23;;;13.23;;
19593;SDS011;9944;48.240;16.478;2022-12-16T16:36:24;27.53;;;13.67;;
19593;SDS011;9944;48.240;16.478;2022-12-16T16:40:46;24.87;;;12.40;;
19593;SDS011;9944;48.240;16.478;2022-12-16T16:45:07;31.63;;;13.33;;
19593;SDS011;9944;48.240;16.478;2022-12-16T16:49:29;25.33;;;13.87;;
19593;SDS011;9944;48.240;16.478;2022-12-16T16:53:51;27.47;;;13.47;;
19593;SDS011;9944;48.240;16.478;2022-12-16T16:58:18;25.60;;;12.87;;
19593;SDS011;9944;48.240;16.478;2022-12-16T17:02:43;27.90;;;13.33;;
19593;SDS011;9944;48.240;16.478;2022-12-16T17:07:18;30.00;;;13.97;;
19593;SDS011;9944;48.240;16.478;2022-12-16T17:11:39;31.37;;;14.87;;
19593;SDS011;9944;48.240;16.478;2022-12-16T17:16:01;27.77;;;13.90;;
19593;SDS011;9944;48.240;16.478;2022-12-16T17:20:22;33.00;;;12.87;;
19593;SDS011;9944;48.240;16.478;2022-12-16T17:24:43;33.13;;;14.83;;
19593;SDS011;9944;48.240;16.478;2022-12-16T17:29:05;29.50;;;13.27;;
19593;SDS011;9944;48.240;16.478;2022-12-16T17:33:33;28.73;;;13.90;;
19593;SDS011;9944;48.240;16.478;2022-12-16T17:37:54;32.93;;;15.63;;
19593;SDS011;9944;48.240;16.478;2022-12-16T17:42:15;28.13;;;14.17;;
19593;SDS011;9944;48.240;16.478;2022-12-16T17:46:35;29.37;;;14.17;;
19593;SDS011;9944;48.240;16.478;2022-12-16T17:50:59;35.17;;;15.47;;
19593;SDS011;9944;48.240;16.478;2022-12-16T17:55:20;32.97;;;15.53;;
19593;SDS011;9944;48.240;16.478;2022-12-16T17:59:41;29.83;;;14.60;;
19593;SDS011;9944;48.240;16.478;2022-12-16T18:04:01;31.53;;;14.23;;
19593;SDS011;9944;48.240;16.478;2022-12-16T18:08:24;31.20;;;15.37;;
19593;SDS011;9944;48.240;16.478;2022-12-16T18:12:44;30.40;;;14.83;;
19593;SDS011;9944;48.240;16.478;2022-12-16T18:17:05;32.37;;;14.87;;
19593;SDS011;9944;48.240;16.478;2022-12-16T18:21:26;32.83;;;15.33;;
19593;SDS011;9944;48.240;16.478;2022-12-16T18:25:56;30.67;;;14.97;;
19593;SDS011;9944;48.240;16.478;2022-12-16T18:30:18;31.57;;;16.07;;
19593;SDS011;9944;48.240;16.478;2022-12-16T18:34:39;31.57;;;15.30;;
19593;SDS011;9944;48.240;16.478;2022-12-16T18:38:59;31.27;;;15.17;;
19593;SDS011;9944;48.240;16.478;2022-12-16T18:43:21;35.60;;;15.70;;
19593;SDS011;9944;48.240;16.478;2022-12-16T18:47:41;30.80;;;14.57;;
19593;SDS011;9944;48.240;16.478;2022-12-16T18:52:02;30.13;;;13.23;;
19593;SDS011;9944;48.240;16.478;2022-12-16T18:56:22;35.13;;;15.17;;
19593;SDS011;9944;48.240;16.478;2022-12-16T19:00:44;29.23;;;14.47;;
19593;SDS011;9944;48.240;16.478;2022-12-16T19:05:05;32.67;;;14.73;;
19593;SDS011;9944;48.240;16.478;2022-12-16T19:09:26;32.67;;;15.30;;
19593;SDS011;9944;48.240;16.478;2022-12-16T19:13:47;30.10;;;15.70;;
19593;SDS011;9944;48.240;16.478;2022-12-16T19:18:11;27.03;;;13.27;;
19593;SDS011;9944;48.240;16.478;2022-12-16T19:22:31;27.77;;;14.10;;
19593;SDS011;9944;48.240;16.478;2022-12-16T19:26:52;33.23;;;15.33;;
19593;SDS011;9944;48.240;16.478;2022-12-16T19:31:16;30.33;;;15.03;;
19593;SDS011;9944;48.240;16.478;2022-12-16T19:35:37;29.33;;;14.47;;
19593;SDS011;9944;48.240;16.478;2022-12-16T19:39:58;28.40;;;14.50;;
19593;SDS011;9944;48.240;16.478;2022-12-16T19:44:18;32.13;;;15.33;;
19593;SDS011;9944;48.240;16.478;2022-12-16T19:48:39;28.40;;;14.73;;
19593;SDS011;9944;48.240;16.478;2022-12-16T19:53:01;34.37;;;14.53;;
19593;SDS011;9944;48.240;16.478;2022-12-16T19:57:22;31.47;;;15.00;;
19593;SDS011;9944;48.240;16.478;2022-12-16T20:01:42;27.83;;;14.53;;
19593;SDS011;9944;48.240;16.478;2022-12-16T20:06:04;31.90;;;15.30;;
19593;SDS011;9944;48.240;16.478;2022-12-16T20:10:28;29.87;;;14.50;;
19593;SDS011;9944;48.240;16.478;2022-12-16T20:14:48;28.93;;;13.90;;
19593;SDS011;9944;48.240;16.478;2022-12-16T20:19:08;30.57;;;15.00;;
19593;SDS011;9944;48.240;16.478;2022-12-16T20:23:29;29.77;;;14.77;;
19593;SDS011;9944;48.240;16.478;2022-12-16T20:27:50;29.63;;;14.57;;
19593;SDS011;9944;48.240;16.478;2022-12-16T20:32:11;33.30;;;16.30;;
19593;SDS011;9944;48.240;16.478;2022-12-16T20:36:28;32.03;;;14.67;;
19593;SDS011;9944;48.240;16.478;2022-12-16T20:40:53;26.63;;;14.77;;
19593;SDS011;9944;48.240;16.478;2022-12-16T20:45:18;29.63;;;14.90;;
19593;SDS011;9944;48.240;16.478;2022-12-16T20:49:39;31.50;;;14.87;;
19593;SDS011;9944;48.240;16.478;2022-12-16T20:53:59;32.07;;;15.50;;
19593;SDS011;9944;48.240;16.478;2022-12-16T20:58:20;33.67;;;15.63;;
19593;SDS011;9944;48.240;16.478;2022-12-16T21:02:42;31.53;;;14.43;;
19593;SDS011;9944;48.240;16.478;2022-12-16T21:07:03;32.03;;;15.07;;
19593;SDS011;9944;48.240;16.478;2022-12-16T21:11:23;30.97;;;15.00;;
19593;SDS011;9944;48.240;16.478;2022-12-16T21:15:44;31.10;;;15.40;;
19593;SDS011;9944;48.240;16.478;2022-12-16T21:20:07;29.37;;;14.57;;
19593;SDS011;9944;48.240;16.478;2022-12-16T21:24:28;35.07;;;15.63;;
19593;SDS011;9944;48.240;16.478;2022-12-16T21:28:48;31.70;;;14.93;;
19593;SDS011;9944;48.240;16.478;2022-12-16T21:33:14;27.47;;;14.13;;
19593;SDS011;9944;48.240;16.478;2022-12-16T21:37:36;30.60;;;15.87;;
19593;SDS011;9944;48.240;16.478;2022-12-16T21:41:57;35.40;;;16.30;;
19593;SDS011;9944;48.240;16.478;2022-12-16T21:46:17;31.53;;;14.70;;
19593;SDS011;9944;48.240;16.478;2022-12-16T21:50:38;32.67;;;15.57;;
19593;SDS011;9944;48.240;16.478;2022-12-16T21:55:00;30.30;;;14.93;;
19593;SDS011;9944;48.240;16.478;2022-12-16T21:59:20;30.47;;;15.20;;
19593;SDS011;9944;48.240;16.478;2022-12-16T22:03:41;30.60;;;15.50;;
19593;SDS011;9944;48.240;16.478;2022-12-16T22:08:04;29.33;;;14.87;;
19593;SDS011;9944;48.240;16.478;2022-12-16T22:12:27;32.47;;;15.60;;
19593;SDS011;9944;48.240;16.478;2022-12-16T22:16:47;31.27;;;15.33;;
19593;SDS011;9944;48.240;16.478;2022-12-16T22:21:08;28.50;;;15.10;;
19593;SDS011;9944;48.240;16.478;2022-12-16T22:25:28;29.63;;;15.10;;
19593;SDS011;9944;48.240;16.478;2022-12-16T22:29:50;30.57;;;14.00;;
19593;SDS011;9944;48.240;16.478;2022-12-16T22:34:11;28.63;;;15.30;;
19593;SDS011;9944;48.240;16.478;2022-12-16T22:38:32;30.43;;;15.90;;
19593;SDS011;9944;48.240;16.478;2022-12-16T22:43:01;30.63;;;14.60;;
19593;SDS011;9944;48.240;16.478;2022-12-16T22:47:25;31.00;;;14.87;;
19593;SDS011;9944;48.240;16.478;2022-12-16T22:51:45;30.20;;;14.50;;
19593;SDS011;9944;48.240;16.478;2022-12-16T22:56:06;30.07;;;14.70;;
19593;SDS011;9944;48.240;16.478;2022-12-16T23:00:27;28.73;;;14.93;;
19593;SDS011;9944;48.240;16.478;2022-12-16T23:04:48;27.23;;;14.80;;
19593;SDS011;9944;48.240;16.478;2022-12-16T23:09:27;29.70;;;14.73;;
19593;SDS011;9944;48.240;16.478;2022-12-16T23:13:48;33.70;;;15.03;;
19593;SDS011;9944;48.240;16.478;2022-12-16T23:18:09;27.30;;;14.17;;
19593;SDS011;9944;48.240;16.478;2022-12-16T23:22:31;28.27;;;13.70;;
19593;SDS011;9944;48.240;16.478;2022-12-16T23:26:52;28.80;;;14.27;;
19593;SDS011;9944;48.240;16.478;2022-12-16T23:31:13;26.37;;;14.07;;
19593;SDS011;9944;48.240;16.478;2022-12-16T23:35:34;29.23;;;14.17;;
19593;SDS011;9944;48.240;16.478;2022-12-16T23:39:57;26.20;;;14.03;;
19593;SDS011;9944;48.240;16.478;2022-12-16T23:44:17;29.93;;;15.43;;
19593;SDS011;9944;48.240;16.478;2022-12-16T23:48:38;28.97;;;14.67;;
19593;SDS011;9944;48.240;16.478;2022-12-16T23:53:02;30.50;;;14.50;;
19593;SDS011;9944;48.240;16.478;2022-12-16T23:57:39;27.93;;;13.67;;
